Time;durP1;ratioP1;P1;durP2;ratioP2;P2;SDS_P1;SDS_P2;PMS_P1;PMS_P2;Temp;Humidity;BMP_temperature;BMP_pressure;BME280_temperature;BME280_humidity;BME280_pressure;Samples;Min_cycle;Max_cycle;Signal;HPM_P1;HPM_P2
2023/07/03 00:03:27;;;;;;;13.80;4.55;;;;;;;14.98;100.00;100638.41;10156131;29;20047;-87
2023/07/03 00:08:27;;;;;;;8.43;3.83;;;;;;;15.01;100.00;100654.47;10158491;29;20051;-85
2023/07/03 00:13:28;;;;;;;12.02;3.78;;;;;;;14.91;100.00;100649.00;10155184;29;20043;-85
2023/07/03 00:18:29;;;;;;;13.45;3.97;;;;;;;14.82;100.00;100654.34;10133476;29;20080;-87
2023/07/03 00:23:29;;;;;;;17.33;4.28;;;;;;;14.73;100.00;100653.28;10148159;29;20051;-86
2023/07/03 00:28:30;;;;;;;21.48;4.82;;;;;;;14.65;100.00;100651.94;10142889;29;20041;-85
2023/07/03 00:33:30;;;;;;;13.90;3.97;;;;;;;14.60;100.00;100657.53;10139465;29;20036;-86
2023/07/03 00:38:31;;;;;;;15.98;4.60;;;;;;;14.56;100.00;100647.31;10171603;29;20095;-85
2023/07/03 00:43:32;;;;;;;16.92;4.32;;;;;;;14.31;100.00;100615.84;10154281;29;20051;-85
2023/07/03 00:48:33;;;;;;;15.25;4.40;;;;;;;14.47;100.00;100644.25;10155053;29;20047;-85
2023/07/03 00:53:33;;;;;;;13.35;4.63;;;;;;;14.44;100.00;100644.84;10138711;29;20047;-84
2023/07/03 00:58:34;;;;;;;14.60;4.53;;;;;;;14.36;100.00;100645.44;10153601;29;20048;-86
2023/07/03 01:03:39;;;;;;;12.15;4.68;;;;;;;14.29;100.00;100637.47;10139108;29;20100;-86
2023/07/03 01:08:39;;;;;;;17.17;5.00;;;;;;;14.26;100.00;100638.88;10153898;29;20032;-85
2023/07/03 01:13:40;;;;;;;11.85;4.10;;;;;;;14.18;100.00;100617.31;10154550;29;20029;-86
2023/07/03 01:18:40;;;;;;;17.00;4.40;;;;;;;14.23;100.00;100617.28;10153885;29;20040;-85
2023/07/03 01:23:45;;;;;;;14.45;3.53;;;;;;;14.16;100.00;100632.53;10138478;29;20100;-85
2023/07/03 01:28:51;;;;;;;18.00;4.68;;;;;;;14.17;100.00;100629.47;10138838;29;20069;-85
2023/07/03 01:33:52;;;;;;;15.98;4.60;;;;;;;14.17;100.00;100615.63;10125468;29;20051;-86
2023/07/03 01:38:52;;;;;;;13.85;4.95;;;;;;;14.05;100.00;100598.53;10128951;29;20040;-85
2023/07/03 01:43:53;;;;;;;15.75;5.55;;;;;;;14.20;100.00;100633.63;10161284;29;20028;-85
2023/07/03 01:48:53;;;;;;;16.13;4.47;;;;;;;14.18;100.00;100620.06;10177149;29;20166;-87
2023/07/03 01:54:38;;;;;;;15.75;5.35;;;;;;;14.20;100.00;100617.84;10160072;29;20158;-85
2023/07/03 01:59:40;;;;;;;16.33;4.70;;;;;;;14.22;100.00;100610.09;10154658;29;20044;-86
2023/07/03 02:05:08;;;;;;;17.77;4.00;;;;;;;14.22;100.00;100607.31;10145088;29;20056;-87
2023/07/03 02:10:08;;;;;;;19.90;3.92;;;;;;;14.21;100.00;100602.88;10146631;29;20064;-84
2023/07/03 02:15:10;;;;;;;24.58;4.80;;;;;;;14.37;100.00;100644.34;10142933;29;20060;-85
2023/07/03 02:20:14;;;;;;;20.63;5.65;;;;;;;13.79;100.00;100595.03;10158880;29;20036;-81
2023/07/03 02:25:16;;;;;;;12.77;3.78;;;;;;;13.74;100.00;100626.31;10177239;29;20063;-83
2023/07/03 02:30:16;;;;;;;11.63;3.70;;;;;;;13.45;100.00;100613.13;10143793;29;20067;-82
2023/07/03 02:35:17;;;;;;;8.80;3.05;;;;;;;13.47;100.00;100626.69;10159314;29;20410;-82
2023/07/03 02:40:17;;;;;;;16.77;5.40;;;;;;;13.45;100.00;100624.19;10156647;29;20036;-83
2023/07/03 02:45:19;;;;;;;17.55;4.72;;;;;;;13.42;100.00;100618.41;10171975;29;20522;-82
2023/07/03 02:50:20;;;;;;;19.23;4.78;;;;;;;13.40;100.00;100621.44;10175468;29;20048;-81
2023/07/03 02:55:20;;;;;;;18.88;5.03;;;;;;;13.30;100.00;100604.88;10158681;29;20032;-82
2023/07/03 03:00:21;;;;;;;10.23;4.28;;;;;;;13.32;100.00;100613.72;10158230;29;20040;-82
2023/07/03 03:05:22;;;;;;;19.15;5.25;;;;;;;13.26;100.00;100600.97;10142748;29;20117;-80
2023/07/03 03:10:23;;;;;;;19.05;5.05;;;;;;;13.20;100.00;100610.38;10127379;29;20052;-82
2023/07/03 03:15:26;;;;;;;16.17;4.70;;;;;;;13.06;100.00;100599.06;10155802;29;20052;-81
2023/07/03 03:20:26;;;;;;;18.25;4.88;;;;;;;13.04;100.00;100601.28;10157904;29;20052;-80
2023/07/03 03:25:26;;;;;;;14.02;4.30;;;;;;;12.86;100.00;100583.34;10157136;29;20044;-82
2023/07/03 03:30:27;;;;;;;11.35;3.97;;;;;;;12.88;100.00;100590.25;10156842;29;20036;-82
2023/07/03 03:35:27;;;;;;;13.23;4.70;;;;;;;12.81;100.00;100597.13;10156027;29;20044;-82
2023/07/03 03:40:28;;;;;;;11.63;3.50;;;;;;;12.71;100.00;100600.72;10123895;29;20032;-80
2023/07/03 03:45:28;;;;;;;10.75;3.50;;;;;;;12.68;100.00;100599.34;10124386;29;20044;-82
2023/07/03 03:50:29;;;;;;;13.20;3.60;;;;;;;12.60;100.00;100580.56;10156716;29;20040;-82
2023/07/03 03:55:29;;;;;;;12.30;3.30;;;;;;;12.67;100.00;100611.50;10124899;29;20076;-83
2023/07/03 04:00:30;;;;;;;17.08;3.67;;;;;;;12.64;100.00;100609.28;10173186;29;20055;-82
2023/07/03 04:05:31;;;;;;;10.85;3.85;;;;;;;12.65;100.00;100605.44;10140069;29;20052;-81
2023/07/03 04:10:31;;;;;;;12.30;2.65;;;;;;;12.65;100.00;100607.34;10154249;29;20040;-81
2023/07/03 04:15:33;;;;;;;8.52;3.20;;;;;;;12.63;100.00;100609.53;10139411;29;20063;-82
2023/07/03 04:20:34;;;;;;;24.23;4.95;;;;;;;12.63;100.00;100607.63;10156158;29;20047;-82
2023/07/03 04:25:34;;;;;;;18.27;4.03;;;;;;;12.58;100.00;100604.84;10172240;29;20032;-82
2023/07/03 04:30:35;;;;;;;7.95;2.53;;;;;;;12.56;100.00;100593.25;10154854;29;20036;-81
2023/07/03 04:35:36;;;;;;;9.52;2.47;;;;;;;12.68;100.00;100604.88;10123193;29;20056;-83
2023/07/03 04:40:36;;;;;;;12.50;3.30;;;;;;;12.73;100.00;100606.78;10152999;29;20079;-80
2023/07/03 04:45:40;;;;;;;8.45;1.88;;;;;;;12.72;100.00;100594.94;10108156;29;20056;-83
2023/07/03 04:50:41;;;;;;;14.10;3.67;;;;;;;12.89;100.00;100607.63;10138708;29;20099;-83
2023/07/03 04:55:41;;;;;;;6.10;1.70;;;;;;;12.92;100.00;100615.38;10122507;29;20076;-83
2023/07/03 05:00:42;;;;;;;10.85;2.72;;;;;;;13.02;100.00;100626.44;10122030;29;20123;-82
2023/07/03 05:05:42;;;;;;;9.43;1.75;;;;;;;13.09;100.00;100620.63;10153580;29;20517;-82
2023/07/03 05:10:43;;;;;;;6.40;1.60;;;;;;;13.30;100.00;100621.47;10154773;29;20036;-79
2023/07/03 05:15:43;;;;;;;9.23;1.90;;;;;;;13.59;100.00;100618.09;10178072;29;20341;-80
2023/07/03 05:20:44;;;;;;;9.07;3.47;;;;;;;13.52;100.00;100602.63;10161064;29;20036;-80
2023/07/03 05:25:47;;;;;;;7.78;1.70;;;;;;;13.66;100.00;100624.13;10159828;29;20052;-81
2023/07/03 05:30:55;;;;;;;7.05;1.77;;;;;;;13.78;100.00;100627.44;10161419;29;20051;-80
2023/07/03 05:35:57;;;;;;;4.43;1.70;;;;;;;13.91;100.00;100631.53;10129036;29;20052;-80
2023/07/03 05:40:58;;;;;;;7.50;1.77;;;;;;;14.02;100.00;100629.56;10160290;29;20047;-80
2023/07/03 05:45:58;;;;;;;8.52;2.00;;;;;;;14.16;100.00;100625.06;10144091;29;20512;-79
2023/07/03 05:50:59;;;;;;;7.55;1.55;;;;;;;14.41;100.00;100634.34;10151922;29;20100;-79
2023/07/03 05:56:00;;;;;;;10.95;1.77;;;;;;;14.69;100.00;100630.84;10143552;29;20055;-80
2023/07/03 06:01:00;;;;;;;12.55;1.63;;;;;;;15.03;100.00;100618.16;10159666;29;20040;-82
2023/07/03 06:06:03;;;;;;;5.32;1.83;;;;;;;15.58;100.00;100628.97;10143895;29;20577;-81
2023/07/03 06:11:04;;;;;;;5.10;1.38;;;;;;;16.12;100.00;100622.25;10176052;29;20048;-79
2023/07/03 06:16:04;;;;;;;9.02;1.58;;;;;;;16.25;100.00;100629.88;10160104;29;20051;-81
2023/07/03 06:21:05;;;;;;;8.52;1.55;;;;;;;16.11;100.00;100620.59;10142998;29;20036;-84
2023/07/03 06:26:05;;;;;;;10.98;1.48;;;;;;;15.93;100.00;100641.66;10173394;29;20504;-84
2023/07/03 06:31:06;;;;;;;7.47;1.55;;;;;;;15.54;100.00;100643.44;10176328;29;20040;-84
2023/07/03 06:36:06;;;;;;;4.90;1.25;;;;;;;15.42;100.00;100645.78;10175754;29;20040;-83
2023/07/03 06:41:07;;;;;;;17.40;2.20;;;;;;;15.48;100.00;100658.50;10175726;29;20051;-80
2023/07/03 06:46:07;;;;;;;9.88;1.50;;;;;;;15.49;100.00;100643.47;10158976;29;20044;-81
2023/07/03 06:51:09;;;;;;;8.27;1.48;;;;;;;15.99;100.00;100642.41;10158722;29;20079;-83
2023/07/03 06:56:10;;;;;;;6.63;1.42;;;;;;;16.78;100.00;100620.47;10166561;29;20435;-82
2023/07/03 07:01:11;;;;;;;7.72;1.52;;;;;;;16.85;100.00;100622.91;10173925;29;20040;-84
2023/07/03 07:06:17;;;;;;;6.97;1.15;;;;;;;16.67;100.00;100605.91;10134520;29;20041;-87
2023/07/03 07:11:20;;;;;;;5.63;1.00;;;;;;;16.22;100.00;100672.09;10104429;29;20041;-83
2023/07/03 07:16:22;;;;;;;5.25;0.88;;;;;;;14.71;100.00;100678.50;10111738;29;20289;-83
2023/07/03 07:21:23;;;;;;;6.70;2.17;;;;;;;14.10;100.00;100670.50;10142475;29;20036;-82
2023/07/03 07:26:33;;;;;;;8.02;2.50;;;;;;;14.12;100.00;100701.50;10162096;29;20060;-83
2023/07/03 07:31:36;;;;;;;6.85;2.53;;;;;;;14.47;100.00;100699.66;10135341;29;20072;-85
2023/07/03 07:36:38;;;;;;;6.93;1.70;;;;;;;14.82;100.00;100703.38;10120920;29;20044;-84
2023/07/03 07:41:38;;;;;;;11.68;2.28;;;;;;;15.34;100.00;100690.81;10121323;29;20043;-84
2023/07/03 07:46:39;;;;;;;9.23;2.10;;;;;;;15.86;100.00;100697.53;10121228;29;20035;-84
2023/07/03 07:51:40;;;;;;;5.28;2.15;;;;;;;16.17;100.00;100691.63;10126191;29;20041;-85
2023/07/03 07:56:40;;;;;;;11.07;2.30;;;;;;;17.04;100.00;100679.31;10120886;29;20048;-84
2023/07/03 08:01:41;;;;;;;10.00;2.10;;;;;;;17.33;100.00;100676.31;10142225;29;20441;-84
2023/07/03 08:06:41;;;;;;;14.02;1.63;;;;;;;17.16;100.00;100659.38;10136603;29;20499;-85
2023/07/03 08:11:44;;;;;;;14.65;2.97;;;;;;;17.01;100.00;100681.88;10135160;29;20047;-86
2023/07/03 08:16:44;;;;;;;6.97;2.08;;;;;;;16.60;100.00;100693.56;10150883;29;20051;-83
2023/07/03 08:21:45;;;;;;;6.72;1.55;;;;;;;15.21;100.00;100548.06;10134590;29;20051;-76
2023/07/03 08:26:45;;;;;;;7.35;1.17;;;;;;;15.92;100.00;100701.09;10121144;29;20068;-81
2023/07/03 08:31:46;;;;;;;3.53;1.50;;;;;;;16.03;100.00;100712.91;10113099;29;20041;-80
2023/07/03 08:36:46;;;;;;;4.72;1.17;;;;;;;16.09;100.00;100720.06;10137632;29;20044;-80
2023/07/03 08:41:51;;;;;;;4.85;0.75;;;;;;;16.26;100.00;100706.50;10127947;29;20032;-80
2023/07/03 08:46:51;;;;;;;3.28;0.57;;;;;;;16.27;100.00;100685.94;10121423;29;20088;-81
2023/07/03 08:51:52;;;;;;;6.78;0.98;;;;;;;16.53;100.00;100707.81;10111293;29;20394;-79
2023/07/03 08:56:53;;;;;;;6.97;0.90;;;;;;;16.69;100.00;100712.06;10125710;29;20052;-80
2023/07/03 09:02:11;;;;;;;4.93;0.98;;;;;;;16.93;100.00;100711.22;10116497;29;20044;-78
2023/07/03 09:07:30;;;;;;;6.45;1.75;;;;;;;17.80;100.00;100712.53;10119780;29;20045;-79
2023/07/03 09:12:34;;;;;;;4.65;2.15;;;;;;;18.04;100.00;100692.03;10122824;29;20048;-83
2023/07/03 09:17:34;;;;;;;3.75;0.90;;;;;;;17.92;100.00;100696.19;10118336;29;20052;-79
2023/07/03 09:22:55;;;;;;;3.45;0.90;;;;;;;18.04;100.00;100697.59;10104214;29;20033;-75
2023/07/03 09:27:56;;;;;;;4.28;1.20;;;;;;;18.70;100.00;100681.44;10126254;29;20040;-77
2023/07/03 09:32:57;;;;;;;4.82;1.00;;;;;;;18.86;100.00;100685.56;10104204;29;20051;-75
2023/07/03 09:37:58;;;;;;;4.57;1.63;;;;;;;18.10;100.00;100587.72;10116240;29;20059;-75
2023/07/03 09:43:00;;;;;;;3.85;0.90;;;;;;;18.39;100.00;100700.81;10120365;29;20628;-72
2023/07/03 09:48:01;;;;;;;3.00;1.35;;;;;;;17.94;100.00;100705.03;10122359;29;20056;-74
2023/07/03 09:53:03;;;;;;;3.78;0.70;;;;;;;17.91;100.00;100707.63;10103956;29;20099;-87
2023/07/03 09:58:23;;;;;;;2.83;0.70;;;;;;;18.34;100.00;100713.72;10080059;29;20043;-82
2023/07/03 10:03:28;;;;;;;3.47;1.10;;;;;;;18.24;100.00;100730.63;10099433;29;20037;-83
2023/07/03 10:08:29;;;;;;;3.20;0.50;;;;;;;18.25;100.00;100704.44;10099725;29;20033;-78
2023/07/03 10:13:30;;;;;;;2.75;0.43;;;;;;;18.49;100.00;100714.53;10083486;29;20045;-75
2023/07/03 10:18:35;;;;;;;2.97;0.70;;;;;;;18.40;100.00;100719.16;10082746;29;20066;-78
2023/07/03 10:23:37;;;;;;;3.05;0.70;;;;;;;18.10;100.00;100727.03;10126302;29;20091;-76
2023/07/03 10:28:40;;;;;;;3.10;0.57;;;;;;;17.83;100.00;100720.28;10136056;29;20071;-76
2023/07/03 10:33:43;;;;;;;1.30;0.68;;;;;;;18.11;100.00;100723.13;10137039;29;20040;-75
2023/07/03 10:39:05;;;;;;;4.35;0.63;;;;;;;18.41;100.00;100740.34;10122597;29;20097;-75
2023/07/03 10:44:08;;;;;;;5.97;1.05;;;;;;;18.39;100.00;100745.41;10120196;29;20060;-76
2023/07/03 10:49:19;;;;;;;3.05;1.00;;;;;;;17.38;100.00;100747.75;10101265;29;20083;-76
2023/07/03 10:54:30;;;;;;;2.33;0.50;;;;;;;16.91;100.00;100757.94;10119016;29;20100;-75
2023/07/03 10:59:34;;;;;;;1.27;0.60;;;;;;;16.44;100.00;100776.31;10127951;29;20063;-78
2023/07/03 11:04:41;;;;;;;4.30;0.77;;;;;;;16.23;100.00;100759.88;10158741;29;20044;-78
2023/07/03 11:09:47;;;;;;;2.00;0.40;;;;;;;16.36;100.00;100751.97;10142603;29;20428;-79
2023/07/03 11:14:57;;;;;;;1.20;0.80;;;;;;;16.93;100.00;100742.63;10174788;29;20074;-79
2023/07/03 11:20:01;;;;;;;1.65;0.50;;;;;;;17.88;100.00;100733.28;10174110;29;20078;-79
2023/07/03 11:25:26;;;;;;;1.02;0.60;;;;;;;18.92;100.00;100720.56;10157618;29;20048;-78
2023/07/03 11:30:26;;;;;;;4.50;0.90;;;;;;;19.52;100.00;100708.19;10134932;29;20168;-79
2023/07/03 11:35:27;;;;;;;5.43;0.88;;;;;;;19.30;100.00;100716.59;10103501;29;20040;-77
2023/07/03 11:40:35;;;;;;;4.20;0.95;;;;;;;18.80;100.00;100736.19;10117804;29;20028;-69
2023/07/03 11:45:36;;;;;;;3.38;1.25;;;;;;;18.53;100.00;100740.63;10118139;29;20100;-77
2023/07/03 11:50:36;;;;;;;3.83;1.15;;;;;;;18.11;100.00;100749.00;10148217;29;20112;-77
2023/07/03 11:55:37;;;;;;;3.58;1.15;;;;;;;17.65;100.00;100741.47;10136791;29;20588;-78
2023/07/03 12:00:38;;;;;;;3.25;0.75;;;;;;;17.66;100.00;100729.19;10155554;29;20036;-77
2023/07/03 12:05:47;;;;;;;3.15;0.50;;;;;;;17.88;100.00;100747.19;10151590;29;20485;-77
2023/07/03 12:10:52;;;;;;;3.30;0.70;;;;;;;17.95;100.00;100739.28;10151908;29;20036;-76
2023/07/03 12:15:56;;;;;;;3.42;0.57;;;;;;;18.40;100.00;100735.88;10154440;29;20419;-78
2023/07/03 12:21:02;;;;;;;2.30;0.40;;;;;;;18.85;100.00;100748.06;10153405;29;20099;-76
2023/07/03 12:26:07;;;;;;;4.00;1.65;;;;;;;18.38;100.00;100749.34;10110496;29;20099;-76
2023/07/03 12:31:21;;;;;;;3.53;0.70;;;;;;;17.82;100.00;100746.47;10173813;23;20072;-84
2023/07/03 12:36:30;;;;;;;1.13;0.50;;;;;;;17.51;100.00;100741.44;10158115;29;20069;-86
2023/07/03 12:41:34;;;;;;;4.05;1.33;;;;;;;15.73;100.00;100537.25;10113995;23;20493;-95
2023/07/03 12:52:33;;;;;;;3.17;1.13;;;;;;;17.20;100.00;100693.81;10093341;29;20092;-91
2023/07/03 12:57:34;;;;;;;2.20;0.52;;;;;;;18.22;100.00;100805.34;9996487;29;20056;-92
2023/07/03 13:02:38;;;;;;;3.13;0.95;;;;;;;18.64;100.00;100764.38;9945933;29;20041;-94
2023/07/03 13:07:44;;;;;;;5.95;0.80;;;;;;;17.90;94.29;100659.44;10017752;29;20045;-93
2023/07/03 13:12:45;;;;;;;2.65;0.75;;;;;;;18.05;94.64;100693.72;10066748;29;20366;-88
2023/07/03 13:17:46;;;;;;;2.28;0.45;;;;;;;16.41;93.53;100518.50;10076038;29;20037;-88
2023/07/03 13:22:54;;;;;;;5.35;0.63;;;;;;;16.54;94.96;100634.47;10057130;29;20060;-90
2023/07/03 13:28:29;;;;;;;3.17;0.70;;;;;;;17.14;98.26;100768.16;10045720;29;20045;-90
2023/07/03 13:34:18;;;;;;;5.00;0.68;;;;;;;16.94;100.00;100785.16;9947829;29;20044;-89
2023/07/03 13:39:49;;;;;;;6.93;0.60;;;;;;;16.89;100.00;100790.78;10014350;29;20614;-91
2023/07/03 13:45:02;;;;;;;5.60;1.10;;;;;;;16.41;100.00;100713.00;10035695;29;20052;-89
2023/07/03 13:50:20;;;;;;;6.28;1.38;;;;;;;15.88;100.00;100589.78;10011511;29;20085;-88
2023/07/03 13:55:21;;;;;;;4.43;1.65;;;;;;;16.40;100.00;100603.81;9996220;29;20081;-88
2023/07/03 14:00:22;;;;;;;5.75;0.85;;;;;;;16.23;100.00;100579.34;10002775;29;20102;-91
2023/07/03 14:05:23;;;;;;;6.90;0.68;;;;;;;16.91;100.00;100647.53;10019265;29;20464;-92
2023/07/03 14:10:24;;;;;;;4.10;0.80;;;;;;;17.03;100.00;100647.09;10032827;29;20047;-89
2023/07/03 14:15:27;;;;;;;3.05;1.13;;;;;;;17.89;100.00;100763.63;9972317;29;20038;-89
2023/07/03 14:20:27;;;;;;;6.30;1.25;;;;;;;17.08;100.00;100654.50;10050411;29;20045;-88
2023/07/03 14:25:31;;;;;;;5.30;1.10;;;;;;;17.61;100.00;100796.13;10068717;29;20454;-89
2023/07/03 14:30:31;;;;;;;3.70;0.80;;;;;;;16.81;100.00;100699.72;10101258;29;20029;-90
2023/07/03 14:35:32;;;;;;;5.15;0.70;;;;;;;16.78;100.00;100614.09;10045883;29;20045;-87
2023/07/03 14:40:33;;;;;;;5.35;0.70;;;;;;;18.53;100.00;100800.00;10079465;29;20100;-87
2023/07/03 14:45:33;;;;;;;2.83;0.60;;;;;;;17.52;99.64;100587.19;10072794;29;20076;-89
2023/07/03 14:50:34;;;;;;;4.95;0.70;;;;;;;17.92;94.03;100645.19;10072132;29;20176;-89
2023/07/03 14:55:34;;;;;;;3.95;0.70;;;;;;;18.10;92.45;100702.75;10055820;29;20093;-88
2023/07/03 15:00:39;;;;;;;2.20;0.50;;;;;;;17.33;93.85;100572.56;10063803;29;20463;-88
2023/07/03 15:05:40;;;;;;;3.65;0.60;;;;;;;17.37;94.38;100678.50;10061250;29;20029;-87
2023/07/03 15:10:40;;;;;;;4.10;0.70;;;;;;;17.04;96.61;100607.00;10067999;29;20033;-87
2023/07/03 15:15:47;;;;;;;3.10;0.60;;;;;;;17.08;99.65;100637.81;10073479;29;20061;-88
2023/07/03 15:20:48;;;;;;;5.63;0.70;;;;;;;16.17;95.72;100560.28;10118760;29;20115;-89
2023/07/03 15:25:48;;;;;;;2.92;0.90;;;;;;;16.58;94.18;100652.19;10093248;29;20040;-89
2023/07/03 15:30:49;;;;;;;4.20;0.70;;;;;;;16.72;94.81;100717.03;10079699;29;20044;-88
2023/07/03 15:35:59;;;;;;;5.28;0.65;;;;;;;15.74;95.02;100539.72;10034986;29;20526;-87
2023/07/03 15:41:02;;;;;;;2.22;1.10;;;;;;;16.50;96.38;100673.13;10071060;29;20056;-89
2023/07/03 15:46:05;;;;;;;2.42;0.88;;;;;;;16.06;96.68;100615.09;10008303;29;20049;-89
2023/07/03 15:51:09;;;;;;;3.55;0.57;;;;;;;15.98;98.23;100590.78;10047965;29;20075;-89
2023/07/03 15:56:19;;;;;;;4.57;0.70;;;;;;;16.65;98.51;100649.03;10042653;29;20052;-90
2023/07/03 16:01:20;;;;;;;4.25;0.75;;;;;;;16.96;96.48;100674.44;10104548;29;20029;-89
2023/07/03 16:06:23;;;;;;;4.40;0.68;;;;;;;17.02;99.47;100678.78;10096218;29;20039;-86
2023/07/03 16:11:23;;;;;;;2.70;0.80;;;;;;;16.46;100.00;100560.94;10079925;29;20025;-88
2023/07/03 16:16:24;;;;;;;5.25;1.13;;;;;;;17.23;100.00;100542.13;10094204;29;20037;-87
2023/07/03 16:21:26;;;;;;;2.33;0.80;;;;;;;19.53;99.02;100661.56;10073140;29;20414;-87
2023/07/03 16:26:27;;;;;;;6.20;1.83;;;;;;;19.45;97.12;100565.47;10100038;29;20033;-87
2023/07/03 16:31:28;;;;;;;4.68;0.80;;;;;;;19.28;97.55;100704.91;10080573;29;20470;-88
2023/07/03 16:36:30;;;;;;;5.95;1.27;;;;;;;18.06;100.00;100590.31;10080425;29;20049;-87
2023/07/03 16:41:34;;;;;;;2.33;0.90;;;;;;;17.81;100.00;100585.25;10048579;29;20041;-88
2023/07/03 16:46:34;;;;;;;7.70;2.35;;;;;;;17.84;100.00;100669.03;10079804;29;20101;-88
2023/07/03 16:51:37;;;;;;;6.85;1.17;;;;;;;16.79;100.00;100586.00;10063958;29;20166;-88
2023/07/03 16:56:37;;;;;;;7.57;2.20;;;;;;;16.22;100.00;100555.44;10084089;29;20100;-86
2023/07/03 17:01:39;;;;;;;4.00;0.80;;;;;;;16.46;100.00;100621.25;10065210;29;20029;-89
2023/07/03 17:06:39;;;;;;;4.95;1.35;;;;;;;15.84;100.00;100507.41;10083723;29;20039;-87
2023/07/03 17:11:40;;;;;;;5.35;1.48;;;;;;;16.53;100.00;100621.69;10087750;29;20067;-86
2023/07/03 17:16:40;;;;;;;7.47;1.27;;;;;;;17.43;100.00;100747.69;10099553;29;20041;-85
2023/07/03 17:21:42;;;;;;;4.97;1.20;;;;;;;17.18;100.00;100672.97;10088819;29;20064;-86
2023/07/03 17:26:43;;;;;;;5.75;1.50;;;;;;;16.09;100.00;100514.56;10089662;29;20374;-84
2023/07/03 17:31:44;;;;;;;7.05;1.27;;;;;;;15.98;100.00;100538.88;10050333;29;20121;-84
2023/07/03 17:36:44;;;;;;;5.88;1.23;;;;;;;16.44;100.00;100595.72;10102044;29;20516;-85
2023/07/03 17:41:45;;;;;;;6.05;1.10;;;;;;;16.84;100.00;100674.06;10079422;29;20045;-84
2023/07/03 17:46:46;;;;;;;4.97;1.00;;;;;;;15.81;100.00;100521.88;10072980;29;20119;-85
2023/07/03 17:51:46;;;;;;;6.53;1.30;;;;;;;15.94;100.00;100560.84;10105303;29;20037;-85
2023/07/03 17:56:47;;;;;;;3.00;0.68;;;;;;;16.34;100.00;100619.72;10108486;29;20119;-85
2023/07/03 18:01:48;;;;;;;8.40;0.95;;;;;;;16.02;100.00;100544.63;10072767;29;20040;-86
2023/07/03 18:06:49;;;;;;;9.73;1.38;;;;;;;16.31;100.00;100600.88;10077927;29;20033;-85
2023/07/03 18:11:50;;;;;;;4.03;0.82;;;;;;;16.02;100.00;100541.84;10096907;29;20088;-86
2023/07/03 18:16:50;;;;;;;2.65;0.80;;;;;;;16.36;100.00;100576.94;10082596;29;20483;-85
2023/07/03 18:21:51;;;;;;;2.53;0.90;;;;;;;16.22;100.00;100565.75;10055292;29;20445;-86
2023/07/03 18:26:52;;;;;;;4.55;1.13;;;;;;;15.73;100.00;100488.13;10094199;29;20080;-84
2023/07/03 18:31:52;;;;;;;7.30;1.33;;;;;;;16.53;100.00;100596.66;10093488;29;20044;-85
2023/07/03 18:36:53;;;;;;;6.18;1.50;;;;;;;15.89;100.00;100530.34;10078162;29;20123;-85
2023/07/03 18:41:53;;;;;;;4.75;1.08;;;;;;;15.41;100.00;100427.75;10081432;29;20447;-86
2023/07/03 18:46:54;;;;;;;7.20;1.00;;;;;;;16.16;100.00;100573.31;10091616;29;20131;-87
2023/07/03 18:52:00;;;;;;;6.13;1.20;;;;;;;15.38;100.00;100458.03;10039078;29;20097;-88
2023/07/03 18:57:18;;;;;;;6.78;1.65;;;;;;;15.51;100.00;100469.22;9945908;29;20051;-87
2023/07/03 19:15:50;;;;;;;;;;;;;;;;;;;;;
2023/07/03 19:20:54;;;;;;;5.05;1.50;;;;;;;15.43;100.00;100477.41;9902328;29;20053;-89
2023/07/03 19:26:56;;;;;;;7.22;1.23;;;;;;;16.22;100.00;100615.75;9899305;29;20076;-87
2023/07/03 19:32:07;;;;;;;;;;;;;;;16.00;100.00;100644.06;9990891;29;20065;-89
2023/07/03 19:37:15;;;;;;;10.75;2.78;;;;;;;14.15;100.00;100446.22;10030186;29;19998;-92
2023/07/03 19:42:18;;;;;;;11.02;2.33;;;;;;;12.87;100.00;100417.28;10050821;29;20053;-88
2023/07/03 19:47:21;;;;;;;10.80;2.45;;;;;;;13.60;100.00;100680.59;10051765;29;20039;-90
2023/07/03 19:52:22;;;;;;;7.32;1.92;;;;;;;13.57;100.00;100728.19;10017507;29;20048;-87
2023/07/03 19:57:23;;;;;;;6.90;2.35;;;;;;;11.67;100.00;100446.28;10089979;29;20063;-89
2023/07/03 20:02:27;;;;;;;5.53;2.97;;;;;;;12.87;100.00;100618.13;10101338;29;20055;-89
2023/07/03 20:07:27;;;;;;;8.68;2.75;;;;;;;11.25;100.00;100373.66;10075136;29;20041;-90
2023/07/03 20:12:31;;;;;;;6.35;3.45;;;;;;;12.05;100.00;100508.47;10092973;29;20040;-90
2023/07/03 20:17:32;;;;;;;11.55;3.25;;;;;;;11.74;100.00;100466.16;10111015;29;20037;-90
2023/07/03 20:22:35;;;;;;;12.38;2.63;;;;;;;12.06;100.00;100503.75;10120050;29;20061;-89
2023/07/03 20:27:37;;;;;;;12.55;4.50;;;;;;;12.84;100.00;100635.28;10102981;29;20028;-88
2023/07/03 20:32:38;;;;;;;13.60;3.70;;;;;;;12.42;100.00;100594.88;10081207;29;20061;-90
2023/07/03 20:37:38;;;;;;;15.18;3.13;;;;;;;11.60;100.00;100429.16;10096470;29;20044;-89
2023/07/03 20:42:39;;;;;;;15.85;2.60;;;;;;;11.68;100.00;100456.22;10092423;29;20088;-89
2023/07/03 20:47:40;;;;;;;11.15;2.78;;;;;;;11.77;100.00;100476.63;10089576;29;20041;-91
2023/07/03 20:52:41;;;;;;;13.55;3.28;;;;;;;12.53;100.00;100638.00;10084794;29;20037;-88
2023/07/03 20:57:41;;;;;;;10.32;2.50;;;;;;;11.24;100.00;100437.31;10094016;29;20047;-89
2023/07/03 21:02:42;;;;;;;6.13;1.77;;;;;;;11.90;100.00;100619.56;10100741;29;20589;-88
2023/07/03 21:07:42;;;;;;;12.07;3.33;;;;;;;11.82;100.00;100680.72;10100070;29;20036;-88
2023/07/03 21:12:43;;;;;;;3.10;1.33;;;;;;;11.29;100.00;100644.84;10091874;29;20048;-87
2023/07/03 21:17:43;;;;;;;4.30;2.30;;;;;;;11.02;100.00;100611.88;10098584;29;20454;-88
2023/07/03 21:22:44;;;;;;;1.85;0.70;;;;;;;10.81;100.00;100629.31;10142490;29;20108;-90
2023/07/03 21:27:45;;;;;;;3.47;1.27;;;;;;;10.97;100.00;100642.13;10111429;29;20033;-87
2023/07/03 21:32:45;;;;;;;2.08;1.02;;;;;;;10.78;100.00;100616.06;10113102;29;20044;-87
2023/07/03 21:37:46;;;;;;;4.85;1.50;;;;;;;11.19;100.00;100677.84;10109509;29;20561;-87
2023/07/03 21:42:46;;;;;;;2.63;1.40;;;;;;;10.30;100.00;100561.69;10110660;29;20060;-88
2023/07/03 21:47:48;;;;;;;4.85;1.17;;;;;;;10.70;100.00;100647.66;10110228;29;20105;-87
2023/07/03 21:52:48;;;;;;;6.43;2.97;;;;;;;10.49;100.00;100619.09;10112313;29;20033;-89
2023/07/03 21:57:49;;;;;;;3.83;1.30;;;;;;;11.14;100.00;100679.72;10085398;29;20040;-89
2023/07/03 22:02:50;;;;;;;2.78;1.55;;;;;;;10.85;100.00;100656.09;10088278;29;20036;-87
2023/07/03 22:07:50;;;;;;;3.15;1.40;;;;;;;10.35;100.00;100543.56;10130197;29;20060;-87
2023/07/03 22:12:53;;;;;;;3.78;1.60;;;;;;;10.30;100.00;100575.44;10095901;29;20025;-87
2023/07/03 22:17:54;;;;;;;4.25;2.17;;;;;;;9.79;100.00;100500.59;10100664;29;20064;-87
2023/07/03 22:22:55;;;;;;;5.78;1.50;;;;;;;10.28;100.00;100566.59;10092172;29;20119;-87
2023/07/03 22:27:57;;;;;;;5.90;1.55;;;;;;;10.69;100.00;100629.50;10107558;29;20040;-87
2023/07/03 22:32:58;;;;;;;6.05;2.03;;;;;;;10.46;100.00;100605.88;10104225;29;20036;-89
2023/07/03 22:37:58;;;;;;;10.38;3.20;;;;;;;9.84;100.00;100519.94;10081785;29;20446;-89
2023/07/03 22:42:59;;;;;;;9.88;2.20;;;;;;;10.10;100.00;100531.19;10057994;29;20045;-89
2023/07/03 22:48:00;;;;;;;12.35;2.95;;;;;;;9.98;100.00;100519.50;10082317;29;20037;-89
2023/07/03 22:53:00;;;;;;;6.43;2.00;;;;;;;10.86;100.00;100656.91;10073606;29;20029;-87
2023/07/03 22:58:01;;;;;;;7.00;2.22;;;;;;;10.28;100.00;100569.34;10088345;29;20045;-85
2023/07/03 23:03:02;;;;;;;13.25;2.25;;;;;;;9.75;100.00;100480.22;10082303;29;20131;-86
2023/07/03 23:08:03;;;;;;;8.75;1.63;;;;;;;10.59;100.00;100602.69;10083190;29;20033;-86
2023/07/03 23:13:03;;;;;;;10.00;2.40;;;;;;;10.32;100.00;100601.88;10084439;29;20045;-85
2023/07/03 23:18:04;;;;;;;12.00;2.85;;;;;;;11.13;100.00;100722.16;10099623;29;20037;-89